createdAt,value
2023-04-19T00:01:08.193Z,95424.03
2023-04-19T00:03:34.903Z,95427.88
2023-04-19T00:06:02.520Z,95423.69
2023-04-19T00:08:29.239Z,95419.06
2023-04-19T00:10:55.770Z,95425.53
2023-04-19T00:13:22.258Z,95429.41
2023-04-19T00:15:49.214Z,95425.88
2023-04-19T00:18:15.918Z,95427.34
2023-04-19T00:20:42.961Z,95429.94
2023-04-19T00:23:09.569Z,95429.72
2023-04-19T00:25:36.227Z,95421.56
2023-04-19T00:28:02.780Z,95426.81
2023-04-19T00:30:29.809Z,95426.81
2023-04-19T00:32:56.486Z,95414.75
2023-04-19T00:35:23.045Z,95424.53
2023-04-19T00:37:49.638Z,95428.25
2023-04-19T00:40:16.198Z,95431.94
2023-04-19T00:42:42.947Z,95430.09
2023-04-19T00:45:09.928Z,95427.75
2023-04-19T00:47:36.772Z,95419.59
2023-04-19T00:50:07.091Z,95419.47
2023-04-19T00:52:34.534Z,95415.53
2023-04-19T00:55:01.952Z,95417.06
2023-04-19T00:57:29.790Z,95418.59
2023-04-19T00:59:57.212Z,95414.06
2023-04-19T01:02:23.994Z,95416.69
2023-04-19T01:04:51.210Z,95411.88
2023-04-19T01:07:18.163Z,95417.91
2023-04-19T01:09:45.512Z,95413.38
2023-04-19T01:12:12.072Z,95409.31
2023-04-19T01:14:38.675Z,95411.69
2023-04-19T01:17:06.166Z,95409.16
2023-04-19T01:19:34.853Z,95409.94
2023-04-19T01:22:03.238Z,95409.50
2023-04-19T01:24:30.872Z,95398.16
2023-04-19T01:26:57.764Z,95401.97
2023-04-19T01:29:24.647Z,95404.69
2023-04-19T01:31:53.832Z,95403.56
2023-04-19T01:34:20.889Z,95402.53
2023-04-19T01:36:47.458Z,95405.19
2023-04-19T01:39:14.100Z,95401.03
2023-04-19T01:41:40.783Z,95392.69
2023-04-19T01:44:07.845Z,95403.25
2023-04-19T01:46:35.251Z,95394.19
2023-04-19T01:49:01.963Z,95411.56
2023-04-19T01:51:28.477Z,95404.81
2023-04-19T01:53:55.058Z,95399.59
2023-04-19T01:56:24.446Z,95392.16
2023-04-19T01:58:51.142Z,95400.72
2023-04-19T02:01:17.758Z,95395.84
2023-04-19T02:03:44.716Z,95401.13
2023-04-19T02:06:12.653Z,95402.63
2023-04-19T02:08:40.318Z,95395.91
2023-04-19T02:11:11.275Z,95391.38
2023-04-19T02:13:37.864Z,95397.41
2023-04-19T02:16:06.129Z,95397.41
2023-04-19T02:18:33.046Z,95394.44
2023-04-19T02:20:59.771Z,95396.66
2023-04-19T02:23:26.471Z,95393.25
2023-04-19T02:25:53.560Z,95391.38
2023-04-19T02:28:20.063Z,95384.94
2023-04-19T02:30:46.784Z,95386.09
2023-04-19T02:33:13.307Z,95383.13
2023-04-19T02:35:39.806Z,95380.50
2023-04-19T02:38:06.414Z,95377.91
2023-04-19T02:40:33.220Z,95378.63
2023-04-19T02:42:59.746Z,95380.88
2023-04-19T02:45:26.326Z,95383.13
2023-04-19T02:47:52.958Z,95389.94
2023-04-19T02:50:19.513Z,95392.94
2023-04-19T02:52:46.143Z,95388.47
2023-04-19T02:55:12.693Z,95384.69
2023-04-19T02:57:39.229Z,95390.72
2023-04-19T03:00:06.742Z,95386.22
2023-04-19T03:02:33.533Z,95389.56
2023-04-19T03:05:00.200Z,95384.69
2023-04-19T03:07:26.754Z,95384.72
2023-04-19T03:09:53.314Z,95388.44
2023-04-19T03:12:19.926Z,95386.94
2023-04-19T03:14:46.499Z,95383.19
2023-04-19T03:17:13.062Z,95381.63
2023-04-19T03:19:39.633Z,95383.91
2023-04-19T03:22:06.287Z,95390.69
2023-04-19T03:24:33.977Z,95347.69
2023-04-19T03:27:02.982Z,95381.66
2023-04-19T03:29:29.524Z,95386.16
2023-04-19T03:31:56.348Z,95379.44
2023-04-19T03:34:22.883Z,95367.72
2023-04-19T03:36:49.427Z,95376.38
2023-04-19T03:39:16.024Z,95375.63
2023-04-19T03:41:42.680Z,95366.94
2023-04-19T03:44:09.314Z,95365.75
2023-04-19T03:46:35.960Z,95373.34
2023-04-19T03:49:02.573Z,95377.91
2023-04-19T03:51:29.173Z,95373.41
2023-04-19T03:53:55.774Z,95372.59
2023-04-19T03:56:22.319Z,95375.28
2023-04-19T03:58:51.666Z,95377.13
2023-04-19T04:01:22.148Z,95371.91
2023-04-19T04:03:49.145Z,95375.66
2023-04-19T04:06:16.254Z,95368.53
2023-04-19T04:08:42.823Z,95362.47
2023-04-19T04:11:09.445Z,95379.41
2023-04-19T04:13:36.087Z,95370.78
2023-04-19T04:16:02.702Z,95368.88
2023-04-19T04:18:29.345Z,95370.03
2023-04-19T04:20:55.924Z,95372.63
2023-04-19T04:23:22.764Z,95376.41
2023-04-19T04:25:58.095Z,95379.41
2023-04-19T04:28:24.686Z,95377.53
2023-04-19T04:30:51.963Z,95380.94
2023-04-19T04:33:19.048Z,95380.56
2023-04-19T04:35:45.657Z,95383.56
2023-04-19T04:38:23.502Z,95382.41
2023-04-19T04:40:55.507Z,95374.91
2023-04-19T04:43:24.097Z,95382.44
2023-04-19T04:45:50.737Z,95392.25
2023-04-19T04:48:17.905Z,95380.94
2023-04-19T04:50:44.417Z,95379.44
2023-04-19T04:53:13.249Z,95381.66
2023-04-19T04:55:40.109Z,95385.84
2023-04-19T04:58:07.272Z,95380.97
2023-04-19T05:00:34.575Z,95383.91
2023-04-19T05:03:02.897Z,95389.22
2023-04-19T05:05:29.989Z,95380.97
2023-04-19T05:07:56.680Z,95384.75
2023-04-19T05:10:23.365Z,95380.97
2023-04-19T05:12:50.037Z,95382.47
2023-04-19T05:15:16.673Z,95385.50
2023-04-19T05:17:43.502Z,95382.09
2023-04-19T05:20:10.755Z,95381.75
2023-04-19T05:22:37.694Z,95389.22
2023-04-19T05:25:05.155Z,95388.47
2023-04-19T05:27:31.815Z,95387.78
2023-04-19T05:29:58.398Z,95393.06
2023-04-19T05:32:25.154Z,95391.56
2023-04-19T05:34:51.810Z,95381.38
2023-04-19T05:37:18.340Z,95387.81
2023-04-19T05:39:45.004Z,95393.84
2023-04-19T05:42:11.695Z,95389.69
2023-04-19T05:44:38.257Z,95393.09
2023-04-19T05:47:04.849Z,95394.22
2023-04-19T05:49:31.640Z,95381.03
2023-04-19T05:51:58.246Z,95383.28
2023-04-19T05:54:24.818Z,95385.53
2023-04-19T05:56:51.441Z,95388.56
2023-04-19T05:59:17.973Z,95388.53
2023-04-19T06:01:44.577Z,95383.28
2023-04-19T06:04:11.392Z,95374.59
2023-04-19T06:06:38.301Z,95384.72
2023-04-19T06:09:04.912Z,95387.00
2023-04-19T06:11:39.381Z,95390.69
2023-04-19T06:14:14.989Z,95385.44
2023-04-19T06:16:42.095Z,95390.63
2023-04-19T06:19:08.721Z,95392.97
2023-04-19T06:21:35.359Z,95393.78
2023-04-19T06:24:02.025Z,95385.44
2023-04-19T06:26:28.548Z,95395.59
2023-04-19T06:28:55.326Z,95395.25
2023-04-19T06:31:22.039Z,95387.69
2023-04-19T06:33:48.697Z,95395.25
2023-04-19T06:36:15.458Z,95386.59
2023-04-19T06:38:44.429Z,95397.50
2023-04-19T06:41:11.038Z,95392.91
2023-04-19T06:43:37.661Z,95395.81
2023-04-19T06:46:07.214Z,95390.50
2023-04-19T06:48:34.955Z,95399.09
2023-04-19T06:51:01.684Z,95398.09
2023-04-19T06:53:28.442Z,95405.75
2023-04-19T06:56:02.460Z,95401.91
2023-04-19T06:58:29.196Z,95400.59
2023-04-19T07:00:56.298Z,95398.69
2023-04-19T07:03:23.100Z,95397.81
2023-04-19T07:05:52.311Z,95400.75
2023-04-19T07:08:18.966Z,95405.16
2023-04-19T07:10:45.686Z,95399.91
2023-04-19T07:13:12.509Z,95391.84
2023-04-19T07:15:39.207Z,95404.22
2023-04-19T07:18:05.951Z,95397.47
2023-04-19T07:20:32.603Z,95403.47
2023-04-19T07:22:59.685Z,95401.81
2023-04-19T07:25:26.890Z,95403.53
2023-04-19T07:27:54.887Z,95395.66
2023-04-19T07:30:21.709Z,95403.31
2023-04-19T07:32:48.552Z,95407.63
2023-04-19T07:35:15.377Z,95404.63
2023-04-19T07:37:42.341Z,95401.31
2023-04-19T07:40:09.897Z,95405.19
2023-04-19T07:42:36.560Z,95395.78
2023-04-19T07:45:03.407Z,95392.19
2023-04-19T07:47:30.085Z,95401.69
2023-04-19T07:49:56.669Z,95391.72
2023-04-19T07:52:23.303Z,95397.63
2023-04-19T07:54:49.980Z,95398.41
2023-04-19T07:57:16.580Z,95396.06
2023-04-19T07:59:43.131Z,95391.97
2023-04-19T08:02:09.771Z,95396.16
2023-04-19T08:04:38.090Z,95388.50
2023-04-19T08:07:06.726Z,95380.09
2023-04-19T08:09:34.544Z,95390.88
2023-04-19T08:12:01.597Z,95385.03
2023-04-19T08:14:40.569Z,95385.66
2023-04-19T08:17:25.367Z,95384.47
2023-04-19T08:19:53.693Z,95382.88
2023-04-19T08:22:21.598Z,95383.91
2023-04-19T08:24:52.390Z,95377.97
2023-04-19T08:27:20.275Z,95379.00
2023-04-19T08:29:46.821Z,95376.44
2023-04-19T08:32:13.577Z,95391.50
2023-04-19T08:34:40.462Z,95384.38
2023-04-19T08:37:09.955Z,95387.94
2023-04-19T08:39:36.697Z,95389.38
2023-04-19T08:42:10.984Z,95386.84
2023-04-19T08:44:53.871Z,95388.44
2023-04-19T08:47:31.235Z,95385.22
2023-04-19T08:50:14.077Z,95388.66
2023-04-19T08:52:55.885Z,95383.09
2023-04-19T08:55:25.962Z,95379.22
2023-04-19T08:57:52.711Z,95368.13
2023-04-19T09:00:19.830Z,95378.16
2023-04-19T09:02:51.691Z,95368.59
2023-04-19T09:05:19.643Z,95365.13
2023-04-19T09:07:47.187Z,95374.50
2023-04-19T09:10:16.847Z,95367.88
2023-04-19T09:12:43.832Z,95359.00
2023-04-19T09:15:11.517Z,95355.78
2023-04-19T09:17:40.301Z,95355.88
2023-04-19T09:20:07.338Z,95345.03
2023-04-19T09:22:34.127Z,95341.66
2023-04-19T09:27:36.497Z,95336.53
2023-04-19T09:30:04.835Z,95331.69
2023-04-19T09:32:47.115Z,95338.59
2023-04-19T09:35:14.179Z,95345.25
2023-04-19T09:38:02.105Z,95337.75
2023-04-19T09:40:28.560Z,95336.13
2023-04-19T09:43:08.854Z,95342.63
2023-04-19T09:45:46.587Z,95341.34
2023-04-19T09:48:13.549Z,95330.22
2023-04-19T09:51:00.131Z,95321.53
2023-04-19T09:53:34.472Z,95330.53
2023-04-19T09:56:03.432Z,95326.50
2023-04-19T09:58:42.618Z,95322.16
2023-04-19T10:01:17.554Z,95316.03
2023-04-19T10:03:49.564Z,95328.75
2023-04-19T10:08:50.737Z,95310.56
2023-04-19T10:11:21.829Z,95316.69
2023-04-19T10:13:50.061Z,95318.19
2023-04-19T10:16:20.123Z,95320.50
2023-04-19T10:18:50.114Z,95314.03
2023-04-19T10:21:17.361Z,95318.34
2023-04-19T10:23:44.336Z,95325.09
2023-04-19T10:26:11.359Z,95321.38
2023-04-19T10:28:38.096Z,95317.78
2023-04-19T10:31:05.893Z,95306.88
2023-04-19T10:33:37.162Z,95307.19
2023-04-19T10:36:04.727Z,95306.09
2023-04-19T10:38:47.302Z,95301.53
2023-04-19T10:41:17.558Z,95286.75
2023-04-19T10:43:57.757Z,95300.06
2023-04-19T10:46:29.069Z,95292.75
2023-04-19T10:49:00.544Z,95289.69
2023-04-19T10:51:27.865Z,95292.97
2023-04-19T10:53:56.330Z,95288.38
2023-04-19T10:57:02.358Z,95274.19
2023-04-19T10:59:33.630Z,95268.25
2023-04-19T11:02:05.904Z,95272.72
2023-04-19T11:04:32.901Z,95270.56
2023-04-19T11:07:05.045Z,95257.59
2023-04-19T11:09:36.140Z,95266.38
2023-04-19T11:12:10.854Z,95262.56
2023-04-19T11:14:41.630Z,95267.81
2023-04-19T11:17:19.600Z,95254.56
2023-04-19T11:20:12.265Z,95257.63
2023-04-19T11:22:40.889Z,95249.78
2023-04-19T11:25:19.229Z,95249.44
2023-04-19T11:27:47.825Z,95250.88
2023-04-19T11:30:20.733Z,95246.38
2023-04-19T11:32:49.280Z,95256.53
2023-04-19T11:35:20.243Z,95240.53
2023-04-19T11:37:46.806Z,95236.63
2023-04-19T11:40:17.684Z,95242.63
2023-04-19T11:42:45.225Z,95231.69
2023-04-19T11:45:26.032Z,95237.81
2023-04-19T11:47:56.312Z,95233.94
2023-04-19T11:50:37.181Z,95225.38
2023-04-19T11:53:10.929Z,95234.72
2023-04-19T11:55:37.521Z,95225.81
2023-04-19T11:58:09.816Z,95227.53
2023-04-19T12:00:36.627Z,95216.94
2023-04-19T12:03:04.467Z,95220.94
2023-04-19T12:05:31.429Z,95220.78
2023-04-19T12:08:02.130Z,95217.38
2023-04-19T12:10:28.720Z,95219.97
2023-04-19T12:12:55.440Z,95215.66
2023-04-19T12:15:24.800Z,95209.28
2023-04-19T12:17:59.509Z,95214.72
2023-04-19T12:20:37.438Z,95214.16
2023-04-19T12:23:04.531Z,95212.25
2023-04-19T12:25:33.341Z,95213.03
2023-04-19T12:28:01.272Z,95203.28
2023-04-19T12:30:27.880Z,95202.16
2023-04-19T12:32:55.734Z,95202.13
2023-04-19T12:35:29.350Z,95207.22
2023-04-19T12:37:58.130Z,95204.03
2023-04-19T12:40:25.808Z,95199.22
2023-04-19T12:42:53.409Z,95200.03
2023-04-19T12:45:20.855Z,95201.75
2023-04-19T12:47:48.462Z,95197.69
2023-04-19T12:50:16.175Z,95187.56
2023-04-19T12:52:44.450Z,95176.00
2023-04-19T12:55:11.193Z,95166.88
2023-04-19T12:57:37.756Z,95170.16
2023-04-19T13:00:06.147Z,95178.50
2023-04-19T13:02:35.012Z,95172.06
2023-04-19T13:05:02.213Z,95166.16
2023-04-19T13:07:29.010Z,95160.66
2023-04-19T13:09:56.970Z,95163.72
2023-04-19T13:12:24.253Z,95161.75
2023-04-19T13:14:52.696Z,95157.81
2023-04-19T13:17:20.644Z,95147.53
2023-04-19T13:19:47.665Z,95153.00
2023-04-19T13:22:14.850Z,95139.38
2023-04-19T13:24:41.761Z,95133.59
2023-04-19T13:27:09.262Z,95129.16
2023-04-19T13:29:36.189Z,95130.38
2023-04-19T13:32:02.937Z,95131.00
2023-04-19T13:34:29.571Z,95134.41
2023-04-19T13:36:57.701Z,95133.00
2023-04-19T13:39:24.507Z,95125.41
2023-04-19T13:41:51.303Z,95133.50
2023-04-19T13:44:18.289Z,95124.06
2023-04-19T13:46:45.166Z,95113.97
2023-04-19T13:49:11.996Z,95119.50
2023-04-19T13:51:49.095Z,95110.34
2023-04-19T13:54:21.285Z,95111.03
2023-04-19T13:56:50.545Z,95095.06
2023-04-19T13:59:18.823Z,95106.06
2023-04-19T14:01:50.777Z,95082.78
2023-04-19T14:04:18.017Z,95088.13
2023-04-19T14:06:44.916Z,95089.50
2023-04-19T14:09:11.541Z,95085.94
2023-04-19T14:11:39.007Z,95080.88
2023-04-19T14:14:05.802Z,95081.75
2023-04-19T14:16:35.184Z,95074.91
2023-04-19T14:19:02.010Z,95080.75
2023-04-19T14:21:28.959Z,95061.72
2023-04-19T14:23:55.566Z,95074.00
2023-04-19T14:26:22.127Z,95064.97
2023-04-19T14:28:55.732Z,95061.16
2023-04-19T14:31:22.331Z,95053.28
2023-04-19T14:33:48.945Z,95055.88
2023-04-19T14:36:15.620Z,95051.16
2023-04-19T14:38:42.137Z,95042.81
2023-04-19T14:41:15.606Z,95044.94
2023-04-19T14:43:42.297Z,95036.81
2023-04-19T14:46:09.163Z,95046.16
2023-04-19T14:48:35.770Z,95046.06
2023-04-19T14:51:02.375Z,95030.16
2023-04-19T14:53:28.933Z,95037.84
2023-04-19T14:55:55.874Z,95039.81
2023-04-19T14:58:22.513Z,95038.81
2023-04-19T15:00:49.101Z,95022.06
2023-04-19T15:03:17.326Z,95016.84
2023-04-19T15:05:44.282Z,95022.25
2023-04-19T15:08:26.961Z,95008.28
2023-04-19T15:10:56.609Z,95009.44
2023-04-19T15:13:23.176Z,95020.66
2023-04-19T15:15:49.786Z,95019.31
2023-04-19T15:18:16.588Z,95017.56
2023-04-19T15:20:43.131Z,95009.50
2023-04-19T15:23:09.648Z,95011.81
2023-04-19T15:25:36.229Z,95019.47
2023-04-19T15:28:03.027Z,95008.47
2023-04-19T15:30:29.561Z,95012.41
2023-04-19T15:32:56.295Z,95015.94
2023-04-19T15:35:22.979Z,95020.34
2023-04-19T15:37:49.522Z,95015.03
2023-04-19T15:40:17.140Z,95006.31
2023-04-19T15:42:43.773Z,95012.75
2023-04-19T15:45:10.977Z,95009.22
2023-04-19T15:47:40.694Z,95008.84
2023-04-19T15:50:08.132Z,95007.19
2023-04-19T15:52:34.795Z,94994.53
2023-04-19T15:55:01.360Z,94996.47
2023-04-19T15:57:27.955Z,94992.84
2023-04-19T15:59:54.423Z,94995.41
2023-04-19T16:02:21.152Z,94986.75
2023-04-19T16:04:48.479Z,94987.25
2023-04-19T16:07:15.263Z,94988.41
2023-04-19T16:09:41.826Z,94989.22
2023-04-19T16:12:08.334Z,94985.78
2023-04-19T16:14:34.932Z,94983.22
2023-04-19T16:17:01.466Z,94966.56
2023-04-19T16:19:28.027Z,94973.13
2023-04-19T16:21:54.680Z,94986.81
2023-04-19T16:24:21.227Z,94984.88
2023-04-19T16:26:48.117Z,94981.25
2023-04-19T16:29:14.885Z,94986.53
2023-04-19T16:31:41.707Z,94980.72
2023-04-19T16:34:08.291Z,94976.88
2023-04-19T16:36:34.863Z,94981.44
2023-04-19T16:39:01.644Z,94981.88
2023-04-19T16:41:28.223Z,94988.31
2023-04-19T16:43:59.489Z,94981.75
2023-04-19T16:46:29.723Z,94992.63
2023-04-19T16:48:58.881Z,94989.84
2023-04-19T16:51:25.399Z,94991.41
2023-04-19T16:53:53.140Z,94986.81
2023-04-19T16:56:24.393Z,94989.47
2023-04-19T16:58:51.664Z,94984.91
2023-04-19T17:01:18.361Z,94973.88
2023-04-19T17:03:45.726Z,94982.25
2023-04-19T17:06:12.470Z,94976.84
2023-04-19T17:08:38.960Z,94984.91
2023-04-19T17:11:05.751Z,94963.63
2023-04-19T17:13:32.656Z,94981.09
2023-04-19T17:15:59.311Z,94977.97
2023-04-19T17:18:25.895Z,94979.69
2023-04-19T17:20:52.592Z,94979.13
2023-04-19T17:23:19.222Z,94972.16
2023-04-19T17:25:46.023Z,94974.97
2023-04-19T17:28:12.560Z,94974.00
2023-04-19T17:30:39.201Z,94971.28
2023-04-19T17:33:05.912Z,94971.09
2023-04-19T17:35:32.551Z,94970.00
2023-04-19T17:37:59.225Z,94974.63
2023-04-19T17:40:26.902Z,94973.22
2023-04-19T17:42:56.018Z,94969.44
2023-04-19T17:45:24.532Z,94968.22
2023-04-19T17:47:55.313Z,94974.66
2023-04-19T17:50:22.740Z,94965.81
2023-04-19T17:52:49.500Z,94967.59
2023-04-19T17:55:16.239Z,94971.09
2023-04-19T17:57:45.384Z,94975.84
2023-04-19T18:00:12.428Z,94975.09
2023-04-19T18:02:40.223Z,94970.44
2023-04-19T18:05:07.840Z,94983.41
2023-04-19T18:07:36.860Z,94979.22
2023-04-19T18:10:04.219Z,94983.13
2023-04-19T18:12:31.049Z,94980.63
2023-04-19T18:14:57.580Z,94979.31
2023-04-19T18:17:24.236Z,94975.84
2023-04-19T18:19:50.922Z,94983.25
2023-04-19T18:22:17.545Z,94975.50
2023-04-19T18:24:46.592Z,94977.41
2023-04-19T18:27:13.622Z,94977.72
2023-04-19T18:29:40.234Z,94978.88
2023-04-19T18:32:06.936Z,94976.16
2023-04-19T18:34:33.704Z,94980.94
2023-04-19T18:37:01.930Z,94980.22
2023-04-19T18:39:28.622Z,94988.84
2023-04-19T18:41:56.380Z,94989.25
2023-04-19T18:44:35.855Z,94996.94
2023-04-19T18:47:11.243Z,94993.03
2023-04-19T18:49:37.839Z,94994.66
2023-04-19T18:52:04.592Z,94989.59
2023-04-19T18:54:31.114Z,94991.84
2023-04-19T18:57:21.894Z,94999.34
2023-04-19T18:59:45.815Z,94996.84
2023-04-19T19:02:12.387Z,94998.88
2023-04-19T19:04:52.055Z,95005.59
2023-04-19T19:07:35.424Z,95001.03
2023-04-19T19:10:09.911Z,95003.88
2023-04-19T19:12:43.226Z,95004.09
2023-04-19T19:15:10.168Z,95003.69
2023-04-19T19:17:36.867Z,94999.69
2023-04-19T19:20:05.197Z,94997.41
2023-04-19T19:22:31.768Z,95007.25
2023-04-19T19:24:58.353Z,95011.09
2023-04-19T19:27:24.860Z,95011.91
2023-04-19T19:29:51.364Z,95010.56
2023-04-19T19:32:19.368Z,95011.75
2023-04-19T19:34:55.656Z,95001.25
2023-04-19T19:37:27.596Z,95004.66
2023-04-19T19:39:56.275Z,95005.03
2023-04-19T19:42:23.147Z,95009.25
2023-04-19T19:44:54.325Z,94995.22
2023-04-19T19:47:21.712Z,95003.03
2023-04-19T19:50:17.494Z,95001.25
2023-04-19T19:52:35.989Z,95001.66
2023-04-19T19:55:02.650Z,95009.06
2023-04-19T19:58:16.361Z,95008.88
2023-04-19T20:00:41.840Z,95003.63
2023-04-19T20:03:06.417Z,94996.81
2023-04-19T20:05:33.795Z,95002.41
2023-04-19T20:08:09.756Z,94994.16
2023-04-19T20:10:37.855Z,94992.59
2023-04-19T20:13:06.655Z,94982.13
2023-04-19T20:15:35.026Z,94990.41
2023-04-19T20:18:01.827Z,94996.50
2023-04-19T20:20:28.577Z,94988.53
2023-04-19T20:22:56.020Z,94995.84
2023-04-19T20:25:23.745Z,94989.69
2023-04-19T20:27:50.263Z,94995.09
2023-04-19T20:30:16.873Z,94988.22
2023-04-19T20:32:43.641Z,94988.31
2023-04-19T20:35:12.391Z,94991.31
2023-04-19T20:37:42.510Z,94986.94
2023-04-19T20:40:12.255Z,94988.31
2023-04-19T20:42:39.114Z,94991.84
2023-04-19T20:45:14.415Z,94991.56
2023-04-19T20:47:41.318Z,94975.88
2023-04-19T20:50:08.748Z,95009.81
2023-04-19T20:52:35.752Z,95007.56
2023-04-19T20:55:02.347Z,95006.06
2023-04-19T20:57:28.854Z,95015.13
2023-04-19T20:59:55.395Z,95014.75
2023-04-19T21:02:22.120Z,95013.59
2023-04-19T21:04:48.736Z,95024.16
2023-04-19T21:07:15.424Z,95020.38
2023-04-19T21:09:41.985Z,95023.31
2023-04-19T21:12:08.584Z,95016.56
2023-04-19T21:14:35.203Z,95006.81
2023-04-19T21:17:02.288Z,95009.13
2023-04-19T21:19:29.562Z,95024.03
2023-04-19T21:21:56.378Z,95010.94
2023-04-19T21:24:22.960Z,95018.03
2023-04-19T21:26:49.464Z,95020.00
2023-04-19T21:29:16.250Z,95014.72
2023-04-19T21:31:42.997Z,95016.94
2023-04-19T21:34:09.502Z,95015.78
2023-04-19T21:36:36.259Z,95021.69
2023-04-19T21:39:03.521Z,95038.25
2023-04-19T21:41:30.198Z,95033.03
2023-04-19T21:43:56.974Z,95018.78
2023-04-19T21:46:23.568Z,95020.97
2023-04-19T21:48:50.293Z,95017.59
2023-04-19T21:51:17.322Z,95016.88
2023-04-19T21:53:43.998Z,95012.34
2023-04-19T21:56:11.684Z,95012.69
2023-04-19T21:58:38.307Z,95016.44
2023-04-19T22:01:04.905Z,95013.41
2023-04-19T22:03:31.868Z,95014.09
2023-04-19T22:06:01.887Z,95014.78
2023-04-19T22:08:31.521Z,95009.66
2023-04-19T22:11:00.424Z,95011.19
2023-04-19T22:13:28.422Z,95009.28
2023-04-19T22:15:57.101Z,95004.75
2023-04-19T22:18:24.118Z,95003.91
2023-04-19T22:20:52.212Z,95006.97
2023-04-19T22:23:19.102Z,95001.00
2023-04-19T22:25:46.041Z,94997.72
2023-04-19T22:28:12.902Z,94980.03
2023-04-19T22:30:39.542Z,94989.47
2023-04-19T22:33:06.194Z,94981.19
2023-04-19T22:35:32.893Z,94973.63
2023-04-19T22:37:59.572Z,94979.63
2023-04-19T22:40:26.453Z,94976.31
2023-04-19T22:42:53.129Z,94976.00
2023-04-19T22:45:19.729Z,94971.81
2023-04-19T22:47:46.385Z,94961.63
2023-04-19T22:50:13.092Z,94969.09
2023-04-19T22:52:40.987Z,94965.69
2023-04-19T22:55:07.851Z,94963.50
2023-04-19T22:57:34.578Z,94970.88
2023-04-19T23:00:01.217Z,94962.22
2023-04-19T23:02:27.928Z,94966.69
2023-04-19T23:04:54.556Z,94953.28
2023-04-19T23:07:21.982Z,94958.47
2023-04-19T23:09:49.722Z,94953.91
2023-04-19T23:12:17.550Z,94944.84
2023-04-19T23:14:44.342Z,94955.44
2023-04-19T23:17:10.793Z,94951.00
2023-04-19T23:19:38.849Z,94954.00
2023-04-19T23:22:05.464Z,94947.91
2023-04-19T23:24:32.105Z,94948.50
2023-04-19T23:26:58.684Z,94930.53
2023-04-19T23:29:25.296Z,94941.03
2023-04-19T23:31:51.857Z,94952.88
2023-04-19T23:34:18.753Z,94944.81
2023-04-19T23:36:45.450Z,94937.38
2023-04-19T23:39:12.324Z,94949.63
2023-04-19T23:41:38.865Z,94924.81
2023-04-19T23:44:05.673Z,94928.91
2023-04-19T23:46:32.324Z,94931.97
2023-04-19T23:48:58.881Z,94931.88
2023-04-19T23:51:25.392Z,94930.78
2023-04-19T23:53:51.919Z,94936.59
2023-04-19T23:56:18.417Z,94920.75
2023-04-19T23:58:45.036Z,94918.16
